createdAt,value
2022-12-08T15:22:56.216Z,20.57
2022-12-08T15:25:22.615Z,20.96
2022-12-08T15:27:50.785Z,21.18
2022-12-08T15:30:17.319Z,21.37
2022-12-08T15:32:43.725Z,21.51
2022-12-08T15:35:10.131Z,21.72
2022-12-08T15:37:36.500Z,21.84
2022-12-08T15:40:03.544Z,21.95
2022-12-08T15:42:30.213Z,21.98
2022-12-08T15:44:56.616Z,22.02
2022-12-08T15:47:22.988Z,22.06
2022-12-08T15:49:49.369Z,22.16
2022-12-08T15:52:15.735Z,22.15
2022-12-08T15:54:42.122Z,21.99
2022-12-08T15:57:19.525Z,22.04
2022-12-08T15:59:51.554Z,22.09
2022-12-08T16:02:22.347Z,22.04
2022-12-08T20:27:27.678Z,20.78
2022-12-08T20:29:54.088Z,21.02
2022-12-08T20:32:20.501Z,21.08
2022-12-08T20:34:46.920Z,21.29
2022-12-08T20:37:13.294Z,21.62
2022-12-08T20:39:39.716Z,21.75
2022-12-08T20:42:06.102Z,22.10
2022-12-08T20:44:32.471Z,22.14
2022-12-08T20:46:58.862Z,22.21
2022-12-08T20:49:28.517Z,22.28
2022-12-08T20:51:59.344Z,22.26
2022-12-08T20:54:25.772Z,22.31
2022-12-08T20:56:52.317Z,22.34
2022-12-08T20:59:18.895Z,22.44
2022-12-08T21:01:45.476Z,22.41
2022-12-08T21:04:12.205Z,22.47
2022-12-08T21:06:38.846Z,22.45
2022-12-08T21:09:05.372Z,22.53
2022-12-08T21:11:31.984Z,22.41
2022-12-08T21:13:58.518Z,22.49
2022-12-08T21:16:25.135Z,22.48
2022-12-08T21:18:51.693Z,22.41
2022-12-08T21:21:18.197Z,22.47
2022-12-08T21:23:44.715Z,22.42
2022-12-08T21:26:11.164Z,22.43
2022-12-08T21:28:37.911Z,22.41
2022-12-08T21:31:04.326Z,22.49
2022-12-08T21:33:31.045Z,22.47
2022-12-08T21:35:57.798Z,22.48
2022-12-08T21:38:24.388Z,22.48
2022-12-08T21:40:50.803Z,22.42
2022-12-08T21:43:17.183Z,22.42
2022-12-08T21:45:43.644Z,22.45
2022-12-08T21:48:11.869Z,22.34
2022-12-08T21:50:38.678Z,22.45
2022-12-08T21:53:05.233Z,22.42
2022-12-08T21:55:31.895Z,22.44
2022-12-08T21:57:58.445Z,22.39
2022-12-08T22:00:24.924Z,22.44
2022-12-08T22:02:51.750Z,22.36
2022-12-08T22:05:18.336Z,22.36
2022-12-08T22:07:44.832Z,22.28
2022-12-08T22:10:11.791Z,22.31
2022-12-08T22:12:38.597Z,22.28
2022-12-08T22:15:04.974Z,22.36
2022-12-08T22:17:31.465Z,22.37
2022-12-08T22:19:57.971Z,22.35
2022-12-08T22:22:24.526Z,22.29
2022-12-08T22:24:50.946Z,22.35
2022-12-08T22:27:17.334Z,22.33
2022-12-08T22:29:43.746Z,22.44
2022-12-08T22:32:10.357Z,22.32
2022-12-08T22:34:36.831Z,22.27
2022-12-08T22:37:03.201Z,22.22
2022-12-08T22:39:29.720Z,22.31
2022-12-08T22:41:56.129Z,22.16
2022-12-08T22:44:22.507Z,22.02
2022-12-08T22:46:48.948Z,22.21
2022-12-08T22:49:15.330Z,22.17
2022-12-08T22:51:41.736Z,22.12
2022-12-08T22:54:08.136Z,22.16
2022-12-08T22:56:34.507Z,22.14
2022-12-08T22:59:01.007Z,22.17
2022-12-08T23:01:27.465Z,22.16
2022-12-08T23:03:54.201Z,22.15
2022-12-08T23:06:21.041Z,22.25
2022-12-08T23:08:47.648Z,22.14
2022-12-08T23:11:14.396Z,22.19
2022-12-08T23:13:40.928Z,22.15
2022-12-08T23:16:07.357Z,22.16
2022-12-08T23:18:33.922Z,22.23
2022-12-08T23:21:00.325Z,22.18
2022-12-08T23:23:26.802Z,22.17
2022-12-08T23:25:53.361Z,22.33
2022-12-08T23:28:19.790Z,22.14
2022-12-08T23:30:46.210Z,22.04
2022-12-08T23:33:12.796Z,22.17
2022-12-08T23:35:39.415Z,22.12
2022-12-08T23:38:05.851Z,22.11
2022-12-08T23:40:32.350Z,22.12
2022-12-08T23:42:58.755Z,22.03
2022-12-08T23:45:25.169Z,22.05
2022-12-08T23:47:51.815Z,22.12
2022-12-08T23:50:18.276Z,22.06
2022-12-08T23:52:44.828Z,22.02
2022-12-08T23:55:11.338Z,22.23
2022-12-08T23:57:37.759Z,22.16
